createdAt,value
2018-07-05T04:58:33.400Z,3.72
2018-07-05T04:59:19.573Z,4.00
2018-07-05T10:42:07.060Z,3.30
2018-07-05T10:47:58.407Z,4.03
2018-07-05T10:51:00.172Z,3.47
2018-07-05T10:53:23.438Z,3.33
2018-07-05T10:54:09.073Z,3.30
2018-07-05T10:54:55.936Z,3.20
2018-07-05T10:55:47.609Z,3.17
2018-07-05T10:57:33.806Z,3.28
2018-07-05T10:59:21.608Z,3.53
2018-07-05T11:03:07.239Z,3.53
2018-07-05T11:03:54.494Z,3.20
2018-07-05T12:05:32.320Z,4.00
2018-07-05T13:14:51.405Z,2.35
2018-07-05T13:15:37.880Z,2.58
2018-07-05T13:16:22.774Z,2.30
2018-07-05T13:17:14.032Z,2.53
2018-07-05T13:21:19.879Z,2.87
2018-07-05T13:22:05.276Z,2.60
2018-07-05T13:22:56.671Z,2.70
2018-07-05T13:23:48.448Z,2.30
2018-07-05T14:08:13.275Z,2.53
2018-07-05T14:10:24.865Z,2.33
2018-07-05T14:11:20.250Z,2.70
2018-07-05T14:12:07.129Z,2.55
2018-07-05T14:13:10.557Z,2.30
2018-07-05T14:13:56.435Z,2.70
2018-07-05T14:16:03.117Z,2.53
2018-07-05T14:31:14.812Z,2.58
2018-07-05T14:33:28.103Z,2.90
2018-07-05T14:34:13.164Z,2.53
2018-07-05T14:35:16.458Z,2.67
2018-07-05T14:37:18.895Z,2.83
2018-07-05T14:39:17.185Z,2.85
2018-07-05T14:47:31.794Z,2.45
2018-07-05T14:49:45.340Z,2.80
2018-07-05T14:51:46.661Z,2.90
2018-07-05T14:54:07.217Z,3.00
2018-07-05T14:54:54.160Z,3.00
2018-07-05T14:57:10.442Z,2.55
2018-07-05T14:58:54.470Z,2.37
2018-07-05T14:59:42.153Z,2.35
2018-07-05T15:00:29.782Z,2.70
2018-07-05T15:01:17.442Z,2.75
2018-07-05T15:02:02.270Z,2.72
2018-07-05T15:02:47.320Z,2.37
2018-07-05T15:03:33.209Z,2.42
2018-07-05T15:04:20.138Z,2.30
2018-07-05T15:05:13.261Z,2.40
2018-07-05T15:05:58.428Z,2.45
2018-07-05T15:06:43.401Z,2.80
2018-07-05T15:07:29.330Z,2.60
2018-07-05T15:08:14.183Z,2.37
2018-07-05T15:08:59.138Z,2.80
2018-07-05T15:09:44.884Z,2.78
2018-07-05T15:10:33.593Z,2.80
2018-07-05T15:11:19.266Z,2.60
2018-07-05T15:12:04.200Z,2.40
2018-07-05T15:12:49.095Z,2.45
2018-07-05T15:13:35.286Z,2.67
2018-07-05T15:14:20.826Z,2.53
2018-07-05T15:15:07.762Z,2.40
2018-07-05T15:15:53.331Z,2.85
2018-07-05T15:16:38.939Z,3.03
2018-07-05T15:17:23.902Z,2.30
2018-07-05T15:18:08.776Z,2.45
2018-07-05T15:18:53.644Z,2.40
2018-07-05T15:19:39.222Z,2.50
2018-07-05T15:20:24.225Z,2.50
2018-07-05T15:21:09.269Z,2.95
2018-07-05T15:21:54.223Z,2.58
2018-07-05T15:22:44.033Z,2.80
2018-07-05T15:23:28.813Z,2.50
2018-07-05T15:24:13.848Z,2.53
2018-07-05T15:24:58.618Z,2.40
2018-07-05T15:25:43.541Z,2.37
2018-07-05T15:26:28.428Z,2.62
2018-07-05T15:27:13.422Z,2.53
2018-07-05T15:27:58.289Z,2.33
2018-07-05T15:28:43.192Z,2.20
2018-07-05T15:29:28.230Z,2.72
2018-07-05T15:30:13.132Z,2.47
2018-07-05T15:30:58.144Z,2.42
2018-07-05T15:31:43.136Z,2.20
2018-07-05T15:32:28.277Z,1.92
2018-07-05T15:33:13.369Z,2.20
2018-07-05T15:34:04.222Z,2.30
2018-07-05T15:34:49.903Z,2.00
2018-07-05T15:35:34.870Z,2.05
2018-07-05T15:36:19.891Z,1.75
2018-07-05T15:37:04.697Z,1.90
2018-07-05T15:37:49.725Z,1.60
2018-07-05T15:38:34.619Z,1.75
2018-07-05T15:39:19.501Z,1.70
2018-07-05T15:40:04.376Z,1.87
2018-07-05T15:40:49.330Z,1.70
2018-07-05T15:41:34.454Z,2.22
2018-07-05T15:42:19.472Z,2.00
2018-07-05T15:43:09.142Z,1.75
2018-07-05T15:43:53.914Z,2.00
2018-07-05T15:44:40.050Z,2.00
2018-07-05T15:45:24.869Z,1.80
2018-07-05T15:46:13.239Z,1.73
2018-07-05T15:46:59.717Z,1.67
2018-07-05T15:47:44.618Z,1.90
2018-07-05T15:48:29.613Z,1.70
2018-07-05T15:49:15.366Z,1.67
2018-07-05T15:50:01.104Z,1.75
2018-07-05T15:50:46.822Z,1.98
2018-07-05T15:51:35.511Z,2.10
2018-07-05T15:52:20.297Z,2.15
2018-07-05T15:53:05.953Z,1.75
2018-07-05T15:53:53.701Z,2.10
2018-07-05T15:54:39.822Z,2.42
2018-07-05T15:55:25.041Z,1.92
2018-07-05T15:56:09.861Z,2.35
2018-07-05T15:56:54.837Z,2.15
2018-07-05T15:57:39.808Z,2.20
2018-07-05T15:58:24.829Z,2.28
2018-07-05T15:59:09.620Z,2.25
2018-07-05T15:59:54.518Z,2.03
2018-07-05T16:00:39.469Z,2.22
2018-07-05T16:01:24.468Z,1.90
2018-07-05T16:02:09.966Z,2.17
2018-07-05T16:02:54.954Z,2.40
2018-07-05T16:03:40.167Z,2.08
2018-07-05T16:04:26.300Z,2.33
2018-07-05T16:05:11.086Z,2.60
2018-07-05T16:06:00.970Z,2.33
2018-07-05T16:06:46.026Z,1.90
2018-07-05T16:07:31.025Z,2.30
2018-07-05T16:08:15.884Z,2.33
2018-07-05T16:09:00.935Z,2.30
2018-07-05T16:09:45.889Z,2.30
2018-07-05T16:10:32.477Z,2.37
2018-07-05T16:11:17.393Z,2.22
2018-07-05T16:12:02.314Z,2.65
2018-07-05T16:12:48.677Z,2.35
2018-07-05T16:13:33.699Z,2.22
2018-07-05T16:14:18.712Z,2.53
2018-07-05T16:15:03.655Z,2.33
2018-07-05T16:15:49.444Z,2.40
2018-07-05T16:16:36.272Z,2.55
2018-07-05T16:17:23.884Z,2.78
2018-07-05T16:18:08.806Z,2.60
2018-07-05T16:18:55.088Z,2.25
2018-07-05T16:19:41.113Z,2.75
2018-07-05T16:20:28.137Z,2.72
2018-07-05T16:21:18.295Z,2.33
2018-07-05T16:22:03.276Z,2.87
2018-07-05T16:22:48.521Z,2.90
2018-07-05T16:23:33.343Z,2.75
2018-07-05T16:24:18.320Z,2.45
2018-07-05T16:25:04.657Z,2.85
2018-07-05T16:25:51.741Z,2.80
2018-07-05T16:26:41.224Z,2.75
2018-07-05T16:27:26.952Z,2.50
2018-07-05T16:28:11.929Z,2.75
2018-07-05T16:28:57.120Z,3.00
2018-07-05T16:29:44.095Z,2.80
2018-07-05T16:30:29.915Z,3.10
2018-07-05T16:31:14.952Z,3.10
2018-07-05T16:32:02.135Z,2.75
2018-07-05T16:32:48.755Z,3.05
2018-07-05T16:33:36.176Z,3.10
2018-07-05T16:34:22.816Z,3.42
2018-07-05T16:35:08.351Z,3.10
2018-07-05T16:35:54.011Z,3.17
2018-07-05T16:36:42.296Z,3.30
2018-07-05T16:37:28.001Z,3.30
2018-07-05T16:38:13.529Z,2.90
2018-07-05T16:39:00.348Z,3.05
2018-07-05T16:39:45.962Z,2.85
2018-07-05T16:40:32.040Z,3.10
2018-07-05T16:41:19.731Z,2.90
2018-07-05T16:42:04.750Z,3.28
2018-07-05T16:42:50.596Z,3.05
2018-07-05T16:43:37.012Z,3.25
2018-07-05T16:44:21.841Z,3.22
2018-07-05T16:45:09.020Z,2.83
2018-07-05T16:45:55.044Z,3.42
2018-07-05T16:46:40.427Z,3.30
2018-07-05T16:47:25.168Z,3.10
2018-07-05T16:48:11.131Z,3.17
2018-07-05T16:48:56.364Z,3.10
2018-07-05T16:49:41.364Z,2.87
2018-07-05T16:50:27.645Z,3.10
2018-07-05T16:51:12.863Z,3.17
2018-07-05T16:52:02.050Z,3.45
2018-07-05T16:52:49.632Z,3.20
2018-07-05T16:53:35.198Z,3.47
2018-07-05T16:54:20.328Z,3.12
2018-07-05T16:55:05.536Z,3.58
2018-07-05T16:55:52.004Z,3.03
2018-07-05T16:56:37.246Z,4.15
2018-07-05T16:57:22.987Z,3.50
2018-07-05T16:58:07.980Z,3.55
2018-07-05T16:58:52.985Z,3.85
2018-07-05T16:59:37.768Z,3.55
2018-07-05T17:00:23.357Z,3.42
2018-07-05T17:01:09.935Z,3.45
2018-07-05T17:01:55.812Z,3.37
2018-07-05T17:02:41.004Z,3.12
2018-07-05T17:03:26.219Z,3.30
2018-07-05T17:04:11.161Z,3.45
2018-07-05T17:04:57.078Z,3.40
2018-07-05T17:05:43.517Z,3.37
2018-07-05T17:06:28.326Z,3.45
2018-07-05T17:07:15.029Z,3.30
2018-07-05T17:08:00.231Z,3.20
2018-07-05T17:08:46.065Z,3.70
2018-07-05T17:09:32.275Z,3.40
2018-07-05T17:10:18.735Z,3.70
2018-07-05T17:11:03.726Z,3.53
2018-07-05T17:11:49.665Z,3.10
2018-07-05T17:12:35.176Z,3.33
2018-07-05T17:13:21.838Z,3.50
2018-07-05T17:14:06.851Z,3.40
2018-07-05T17:14:52.845Z,3.50
2018-07-05T17:15:38.408Z,3.58
2018-07-05T17:16:24.282Z,3.45
2018-07-05T17:17:09.770Z,3.85
2018-07-05T17:17:54.473Z,4.47
2018-07-05T17:18:39.572Z,4.00
2018-07-05T17:19:25.048Z,4.15
2018-07-05T17:20:11.169Z,4.18
2018-07-05T17:20:57.757Z,4.75
2018-07-05T17:21:44.208Z,4.18
2018-07-05T17:22:29.740Z,4.85
2018-07-05T17:23:19.068Z,4.32
2018-07-05T17:24:28.606Z,4.57
2018-07-05T17:25:22.514Z,4.85
2018-07-05T17:26:08.916Z,4.57
2018-07-05T17:27:57.543Z,5.28
2018-07-05T17:32:16.091Z,5.65
2018-07-05T17:33:02.844Z,4.90
2018-07-05T17:34:04.252Z,5.78
2018-07-05T17:36:45.815Z,5.25
2018-07-05T17:39:42.517Z,5.28
2018-07-05T17:40:28.966Z,5.55
2018-07-05T17:41:14.141Z,5.53
2018-07-05T17:42:09.765Z,5.43
2018-07-05T17:43:00.357Z,5.03
2018-07-05T17:43:46.003Z,5.97
2018-07-05T17:45:57.704Z,5.78
